Time;durP1;ratioP1;P1;durP2;ratioP2;P2;SDS_P1;SDS_P2;PMS_P1;PMS_P2;Temp;Humidity;BMP_temperature;BMP_pressure;BME280_temperature;BME280_humidity;BME280_pressure;Samples;Min_cycle;Max_cycle;Signal;HPM_P1;HPM_P2
2022/06/26 00:01:45;;;;;;;4.97;3.72;;;;;;;18.24;100.00;101136.28;5041115;28;20484;-71
2022/06/26 00:04:10;;;;;;;11.05;4.93;;;;;;;18.22;100.00;101132.97;5036091;28;20502;-71
2022/06/26 00:06:37;;;;;;;7.28;4.80;;;;;;;18.17;100.00;101116.72;5037849;28;20325;-72
2022/06/26 00:09:03;;;;;;;9.95;6.30;;;;;;;18.14;100.00;101130.44;5035819;28;20072;-72
2022/06/26 00:11:28;;;;;;;8.25;5.68;;;;;;;18.07;100.00;101139.25;5027029;28;20052;-72
2022/06/26 00:13:54;;;;;;;13.48;7.28;;;;;;;18.09;100.00;101141.69;5038424;28;20037;-72
2022/06/26 00:16:21;;;;;;;9.52;5.75;;;;;;;17.92;100.00;101116.28;5034179;28;20578;-72
2022/06/26 00:18:47;;;;;;;10.27;6.55;;;;;;;18.07;100.00;101136.56;5040179;28;20476;-72
2022/06/26 00:21:13;;;;;;;10.43;7.85;;;;;;;18.02;100.00;101132.81;5037611;28;20030;-72
2022/06/26 00:23:38;;;;;;;8.80;6.10;;;;;;;18.12;100.00;101143.16;5038945;28;20028;-72
2022/06/26 00:26:04;;;;;;;10.23;6.28;;;;;;;18.14;100.00;101125.09;5043703;28;20345;-72
2022/06/26 00:28:29;;;;;;;9.52;6.95;;;;;;;18.13;100.00;101129.63;5037573;28;20013;-73
2022/06/26 00:30:55;;;;;;;15.32;9.15;;;;;;;18.12;100.00;101124.47;5035864;28;20022;-72
2022/06/26 00:33:20;;;;;;;14.52;9.18;;;;;;;18.04;100.00;101126.25;5037099;28;20045;-71
2022/06/26 00:35:46;;;;;;;15.05;9.55;;;;;;;18.06;100.00;101126.88;5036526;28;20448;-71
2022/06/26 00:38:11;;;;;;;11.55;7.57;;;;;;;18.07;100.00;101131.22;5034222;28;20033;-71
2022/06/26 00:40:38;;;;;;;13.45;9.75;;;;;;;17.98;100.00;101096.81;5037835;28;20112;-71
2022/06/26 00:43:04;;;;;;;14.38;9.52;;;;;;;18.07;100.00;101125.03;5038980;28;20122;-71
2022/06/26 00:45:30;;;;;;;11.10;8.57;;;;;;;18.05;100.00;101117.25;5039674;28;20056;-71
2022/06/26 00:47:55;;;;;;;15.85;9.45;;;;;;;18.04;100.00;101120.91;5035292;28;20052;-71
2022/06/26 00:50:20;;;;;;;18.20;10.93;;;;;;;17.98;100.00;101116.34;5035407;28;20034;-71
2022/06/26 00:52:47;;;;;;;14.88;9.50;;;;;;;17.92;100.00;101110.94;5040239;28;20275;-71
2022/06/26 00:55:13;;;;;;;16.23;10.93;;;;;;;17.93;100.00;101113.44;5037548;28;20029;-71
2022/06/26 00:57:38;;;;;;;14.73;9.65;;;;;;;17.92;100.00;101117.13;5041769;28;20448;-72
2022/06/26 01:00:27;;;;;;;13.90;9.15;;;;;;;17.90;100.00;101113.81;5035966;28;20056;-72
2022/06/26 01:02:53;;;;;;;16.30;9.38;;;;;;;17.90;100.00;101116.50;5036849;28;20570;-72
2022/06/26 01:05:18;;;;;;;16.30;9.52;;;;;;;17.89;100.00;101114.81;5033119;28;20116;-72
2022/06/26 01:07:44;;;;;;;15.98;10.02;;;;;;;17.78;100.00;101105.44;5038214;28;20048;-72
2022/06/26 01:10:09;;;;;;;14.30;8.98;;;;;;;17.75;100.00;101089.00;5037161;28;20029;-71
2022/06/26 01:12:35;;;;;;;16.17;10.02;;;;;;;17.75;100.00;101097.00;5023704;28;20044;-71
2022/06/26 01:15:01;;;;;;;17.05;10.13;;;;;;;17.84;100.00;101109.25;5035492;28;20040;-71
2022/06/26 01:17:27;;;;;;;23.17;11.90;;;;;;;17.80;100.00;101110.59;5040702;28;20560;-71
2022/06/26 01:19:54;;;;;;;22.17;12.05;;;;;;;17.77;100.00;101108.31;5039429;28;20029;-71
2022/06/26 01:22:19;;;;;;;21.80;12.60;;;;;;;17.82;100.00;101111.28;5037986;28;20029;-71
2022/06/26 01:24:45;;;;;;;15.80;10.35;;;;;;;17.84;100.00;101111.91;5034838;28;20021;-71
2022/06/26 01:27:10;;;;;;;17.88;12.93;;;;;;;17.86;100.00;101115.22;5045746;28;20255;-72
2022/06/26 01:29:36;;;;;;;18.88;12.90;;;;;;;17.83;100.00;101103.09;5037582;28;20536;-72
2022/06/26 01:32:01;;;;;;;15.50;11.02;;;;;;;17.88;100.00;101111.34;5034616;28;20442;-71
2022/06/26 01:34:26;;;;;;;20.23;12.82;;;;;;;17.93;100.00;101110.75;5036519;28;20107;-71
2022/06/26 01:36:52;;;;;;;16.80;11.52;;;;;;;17.89;100.00;101118.31;5032633;28;20029;-71
2022/06/26 01:39:19;;;;;;;23.55;13.50;;;;;;;17.81;100.00;101168.31;5033244;28;20031;-71
2022/06/26 01:41:47;;;;;;;15.27;9.25;;;;;;;17.69;100.00;101182.16;5035810;28;20029;-71
2022/06/26 01:44:13;;;;;;;15.40;9.10;;;;;;;17.73;100.00;101126.56;5034773;28;20036;-71
2022/06/26 01:46:38;;;;;;;12.77;8.55;;;;;;;17.88;100.00;101161.25;5020053;28;20505;-71
2022/06/26 01:49:03;;;;;;;11.30;8.73;;;;;;;17.92;100.00;101167.88;5033549;28;20026;-71
2022/06/26 01:51:29;;;;;;;12.25;7.88;;;;;;;17.93;100.00;101161.50;5034711;28;20137;-71
2022/06/26 01:53:54;;;;;;;9.13;6.80;;;;;;;18.02;100.00;101146.97;5038104;28;20035;-71
2022/06/26 01:56:19;;;;;;;10.52;6.47;;;;;;;17.93;100.00;101137.47;5034173;28;20497;-71
2022/06/26 01:58:45;;;;;;;10.63;6.63;;;;;;;18.03;100.00;101140.63;5022419;28;20053;-71
2022/06/26 02:01:11;;;;;;;10.07;7.72;;;;;;;18.13;100.00;101156.31;5029348;28;20115;-71
2022/06/26 02:03:36;;;;;;;9.60;6.45;;;;;;;18.17;100.00;101125.53;5035672;28;20078;-71
2022/06/26 02:06:02;;;;;;;8.18;4.97;;;;;;;18.09;100.00;101120.34;5038643;28;20033;-71
2022/06/26 02:08:27;;;;;;;9.25;5.32;;;;;;;18.20;100.00;101153.72;5039276;28;20021;-71
2022/06/26 02:13:36;;;;;;;6.57;5.00;;;;;;;18.23;100.00;101151.50;5037669;28;20568;-71
2022/06/26 02:16:03;;;;;;;9.23;5.30;;;;;;;18.26;100.00;101145.75;5042243;28;20032;-71
2022/06/26 02:18:28;;;;;;;7.38;5.38;;;;;;;18.25;100.00;101159.31;5038341;28;20110;-71
2022/06/26 02:20:55;;;;;;;14.68;5.72;;;;;;;18.28;100.00;101158.91;5031758;28;20447;-71
2022/06/26 02:23:20;;;;;;;8.90;5.57;;;;;;;18.25;100.00;101144.09;5037533;28;20405;-71
2022/06/26 02:25:46;;;;;;;8.63;5.57;;;;;;;18.30;100.00;101157.69;5018703;28;20029;-71
2022/06/26 02:28:12;;;;;;;5.47;4.22;;;;;;;18.30;100.00;101149.69;5042332;28;20031;-71
2022/06/26 02:30:38;;;;;;;5.70;4.45;;;;;;;18.29;100.00;101149.88;5043480;28;20021;-72
2022/06/26 02:33:03;;;;;;;7.45;5.10;;;;;;;18.30;100.00;101148.88;5030315;28;20031;-72
2022/06/26 02:35:29;;;;;;;7.05;4.57;;;;;;;18.30;100.00;101151.53;5033188;28;20028;-72
2022/06/26 02:37:55;;;;;;;4.97;4.07;;;;;;;18.24;100.00;101146.97;5033832;28;20037;-71
2022/06/26 02:40:22;;;;;;;7.18;3.90;;;;;;;18.32;100.00;101160.19;5036627;28;20447;-71
2022/06/26 02:42:48;;;;;;;7.25;4.45;;;;;;;18.34;100.00;101171.50;5032994;28;20036;-71
2022/06/26 02:45:14;;;;;;;6.95;3.97;;;;;;;18.33;100.00;101161.81;5036498;28;20513;-71
2022/06/26 02:47:40;;;;;;;8.13;4.05;;;;;;;18.37;100.00;101189.81;5034675;28;20225;-71
2022/06/26 02:50:06;;;;;;;4.55;4.10;;;;;;;18.21;100.00;101166.88;5038374;28;20120;-71
2022/06/26 02:52:32;;;;;;;8.25;5.03;;;;;;;18.32;100.00;101218.97;5030989;28;20079;-71
2022/06/26 02:54:57;;;;;;;7.43;4.80;;;;;;;18.22;100.00;101245.19;5039825;28;20021;-71
2022/06/26 02:57:23;;;;;;;9.13;4.72;;;;;;;18.03;100.00;101235.94;5037923;28;20473;-71
2022/06/26 02:59:48;;;;;;;5.00;3.78;;;;;;;18.02;100.00;101212.94;5039327;28;20039;-71
2022/06/26 03:02:13;;;;;;;5.05;3.95;;;;;;;17.85;100.00;101215.81;5041319;28;20116;-71
2022/06/26 03:04:39;;;;;;;6.40;4.55;;;;;;;17.94;100.00;101239.75;5041723;28;20497;-72
2022/06/26 03:07:04;;;;;;;6.45;3.95;;;;;;;17.79;100.00;101215.72;5038507;28;20032;-72
2022/06/26 03:09:30;;;;;;;4.47;3.47;;;;;;;17.69;100.00;101190.16;5042840;28;20059;-72
2022/06/26 03:11:55;;;;;;;5.72;2.50;;;;;;;17.71;100.00;101167.81;5033921;28;20444;-72
2022/06/26 03:14:21;;;;;;;3.53;2.92;;;;;;;17.84;100.00;101162.63;5035767;28;20029;-72
2022/06/26 03:16:46;;;;;;;6.32;3.38;;;;;;;17.91;100.00;101168.88;5036956;28;20040;-72
2022/06/26 03:19:12;;;;;;;5.22;2.83;;;;;;;17.83;100.00;101198.34;5038154;28;20466;-72
2022/06/26 03:21:37;;;;;;;2.53;2.00;;;;;;;17.79;100.00;101197.03;5034478;28;20039;-72
2022/06/26 03:24:03;;;;;;;3.33;2.90;;;;;;;17.76;100.00;101184.06;5031286;28;20128;-72
2022/06/26 03:26:33;;;;;;;3.80;2.47;;;;;;;17.76;100.00;101166.22;5038418;28;20057;-72
2022/06/26 03:28:59;;;;;;;4.57;1.85;;;;;;;17.84;100.00;101168.78;5030138;28;20053;-72
2022/06/26 03:31:25;;;;;;;2.92;1.75;;;;;;;17.86;100.00;101168.63;5031842;28;20096;-72
2022/06/26 03:33:51;;;;;;;2.53;2.10;;;;;;;17.86;100.00;101171.28;5031001;28;20125;-72
2022/06/26 03:36:16;;;;;;;3.38;2.17;;;;;;;17.85;100.00;101166.94;5042428;28;20029;-72
2022/06/26 03:38:42;;;;;;;3.53;2.08;;;;;;;17.81;100.00;101169.16;5040937;28;20076;-72
2022/06/26 03:41:11;;;;;;;3.25;1.98;;;;;;;17.86;100.00;101171.28;5032998;28;20035;-72
2022/06/26 03:43:36;;;;;;;2.97;2.03;;;;;;;17.93;100.00;101180.19;5034955;28;20594;-72
2022/06/26 03:46:03;;;;;;;3.22;1.77;;;;;;;17.85;100.00;101166.94;5036859;28;20053;-72
2022/06/26 03:48:28;;;;;;;2.28;2.05;;;;;;;18.00;99.95;101186.41;5030447;28;20036;-72
2022/06/26 03:50:54;;;;;;;2.28;1.70;;;;;;;18.06;100.00;101198.19;5032725;28;20025;-72
2022/06/26 03:53:20;;;;;;;3.60;2.00;;;;;;;18.02;100.00;101194.25;5034136;28;20042;-72
2022/06/26 03:55:45;;;;;;;2.17;1.52;;;;;;;18.06;100.00;101199.00;5030825;28;20033;-72
2022/06/26 03:58:11;;;;;;;3.08;2.05;;;;;;;17.96;100.00;101178.97;5032043;28;20064;-72
2022/06/26 04:00:36;;;;;;;3.35;2.17;;;;;;;18.05;100.00;101197.38;5021716;28;20033;-72
2022/06/26 04:03:03;;;;;;;2.75;1.60;;;;;;;18.05;100.00;101204.53;5044687;28;20037;-72
2022/06/26 04:05:30;;;;;;;2.67;1.73;;;;;;;18.03;100.00;101199.41;5044293;28;20041;-72
2022/06/26 04:07:56;;;;;;;2.30;1.52;;;;;;;17.99;100.00;101197.31;5043725;28;20064;-72
2022/06/26 04:10:21;;;;;;;1.58;0.90;;;;;;;17.98;100.00;101204.47;5039812;28;20021;-72
2022/06/26 04:12:46;;;;;;;1.80;1.30;;;;;;;17.98;100.00;101200.97;5045511;28;20552;-72
2022/06/26 04:15:12;;;;;;;1.88;1.30;;;;;;;17.82;100.00;101181.50;5038538;28;20037;-72
2022/06/26 04:17:37;;;;;;;2.20;1.65;;;;;;;17.93;100.00;101196.19;5035033;28;20029;-72
2022/06/26 04:20:03;;;;;;;1.58;1.02;;;;;;;17.96;100.00;101187.78;5035122;28;20116;-72
2022/06/26 04:22:29;;;;;;;1.25;1.05;;;;;;;17.88;100.00;101179.94;5036843;28;20462;-72
2022/06/26 04:24:54;;;;;;;2.67;1.40;;;;;;;17.98;100.00;101188.44;5035853;28;20108;-72
2022/06/26 04:27:20;;;;;;;3.05;1.30;;;;;;;18.10;100.00;101199.47;5034755;28;20117;-72
2022/06/26 04:29:46;;;;;;;2.03;1.02;;;;;;;18.14;100.00;101195.38;5040107;28;20405;-71
2022/06/26 04:32:11;;;;;;;2.72;1.27;;;;;;;18.20;100.00;101199.13;5032287;28;20033;-71
2022/06/26 04:34:37;;;;;;;2.38;1.42;;;;;;;18.18;100.00;101201.16;5042691;28;20456;-71
2022/06/26 04:37:04;;;;;;;2.33;1.65;;;;;;;18.19;100.00;101210.84;5047553;28;20040;-71
2022/06/26 04:39:29;;;;;;;2.15;1.20;;;;;;;18.08;100.00;101202.31;5040703;28;20401;-72
2022/06/26 04:41:55;;;;;;;2.05;1.30;;;;;;;18.19;100.00;101224.19;5040799;28;20033;-72
2022/06/26 04:44:20;;;;;;;2.40;1.60;;;;;;;18.06;100.00;101215.03;5041738;28;20090;-72
2022/06/26 04:46:49;;;;;;;4.57;1.63;;;;;;;17.99;100.00;101216.81;5045100;28;20041;-72
2022/06/26 04:49:15;;;;;;;2.63;1.40;;;;;;;17.90;100.00;101220.63;5042050;28;20044;-72
2022/06/26 04:51:40;;;;;;;3.60;1.60;;;;;;;18.01;100.00;101238.00;5045325;28;20025;-72
2022/06/26 04:54:08;;;;;;;2.20;1.45;;;;;;;18.01;100.00;101241.47;5040202;28;20533;-72
2022/06/26 04:56:34;;;;;;;2.10;1.25;;;;;;;18.02;100.00;101232.44;5040841;28;20443;-72
2022/06/26 04:59:00;;;;;;;2.95;1.27;;;;;;;18.04;100.00;101238.44;5038216;28;20301;-72
2022/06/26 05:01:26;;;;;;;2.60;1.48;;;;;;;18.04;100.00;101246.44;5037460;28;20076;-72
2022/06/26 05:03:52;;;;;;;2.40;1.50;;;;;;;18.04;100.00;101262.47;5040588;28;20102;-72
2022/06/26 05:06:18;;;;;;;2.42;1.67;;;;;;;17.98;100.00;101265.88;5043094;28;20508;-72
2022/06/26 05:08:44;;;;;;;1.63;1.15;;;;;;;17.88;100.00;101271.53;5040943;28;20112;-72
2022/06/26 05:11:09;;;;;;;3.20;1.70;;;;;;;17.84;100.00;101261.44;5044170;28;20090;-72
2022/06/26 05:13:35;;;;;;;1.63;1.15;;;;;;;17.85;100.00;101265.72;5031447;28;20024;-72
2022/06/26 05:16:00;;;;;;;1.40;1.20;;;;;;;17.93;100.00;101273.63;5043880;28;20041;-72
2022/06/26 05:18:27;;;;;;;2.42;1.50;;;;;;;17.94;100.00;101275.28;5033875;28;20636;-72
2022/06/26 05:20:52;;;;;;;2.33;1.33;;;;;;;17.91;100.00;101281.00;5040087;28;20055;-72
2022/06/26 05:23:18;;;;;;;3.10;1.98;;;;;;;17.74;100.00;101269.69;5038851;28;20110;-72
2022/06/26 05:25:44;;;;;;;2.00;1.33;;;;;;;17.81;100.00;101288.44;5034252;28;20048;-72
2022/06/26 05:28:10;;;;;;;4.10;1.85;;;;;;;17.69;100.00;101288.94;5031996;28;20448;-72
2022/06/26 05:30:35;;;;;;;4.15;2.55;;;;;;;17.42;100.00;101270.91;5039686;28;20485;-73
2022/06/26 05:33:01;;;;;;;3.03;2.17;;;;;;;17.57;100.00;101298.44;5038808;28;20786;-72
2022/06/26 05:35:27;;;;;;;2.40;1.58;;;;;;;17.73;100.00;101286.72;5040905;28;20029;-72
2022/06/26 05:37:52;;;;;;;2.97;1.77;;;;;;;17.87;100.00;101301.09;5043387;28;20029;-72
2022/06/26 05:40:17;;;;;;;1.75;1.60;;;;;;;17.95;100.00;101303.66;5042596;28;20035;-71
2022/06/26 05:42:43;;;;;;;4.78;2.22;;;;;;;17.96;100.00;101309.81;5032379;28;20550;-71
2022/06/26 05:45:09;;;;;;;2.72;1.95;;;;;;;17.82;100.00;101304.31;5038153;28;20507;-72
2022/06/26 05:47:34;;;;;;;1.70;1.25;;;;;;;18.01;100.00;101313.59;5035568;28;20059;-72
2022/06/26 05:50:00;;;;;;;3.13;1.77;;;;;;;18.09;100.00;101317.97;5029307;28;20025;-72
2022/06/26 05:52:26;;;;;;;2.45;1.33;;;;;;;18.17;100.00;101309.84;5040287;28;20032;-72
2022/06/26 05:54:52;;;;;;;2.55;1.70;;;;;;;18.23;100.00;101327.00;5029885;28;20037;-72
2022/06/26 05:57:19;;;;;;;3.85;1.80;;;;;;;18.02;100.00;101325.91;5034077;28;20037;-72
2022/06/26 05:59:45;;;;;;;4.05;2.13;;;;;;;18.05;100.00;101324.72;5027405;28;20476;-72
2022/06/26 06:02:11;;;;;;;2.88;1.67;;;;;;;18.11;100.00;101336.50;5033759;28;20025;-72
2022/06/26 06:04:36;;;;;;;7.85;1.95;;;;;;;18.16;100.00;101336.75;5036553;28;20083;-72
2022/06/26 06:07:02;;;;;;;2.92;2.08;;;;;;;18.20;100.00;101338.03;5035333;28;20475;-72
2022/06/26 06:09:27;;;;;;;3.00;1.95;;;;;;;17.96;100.00;101332.00;5034164;28;20110;-72
2022/06/26 06:11:53;;;;;;;3.25;2.00;;;;;;;18.24;100.00;101339.31;5039410;28;20028;-72
2022/06/26 06:14:18;;;;;;;3.67;2.40;;;;;;;17.98;100.00;101324.63;5034400;28;20365;-72
2022/06/26 06:16:43;;;;;;;3.15;2.40;;;;;;;18.23;100.00;101359.06;5039770;28;20499;-72
2022/06/26 06:19:09;;;;;;;4.38;2.50;;;;;;;18.17;100.00;101367.81;5039061;28;20036;-72
2022/06/26 06:21:34;;;;;;;3.97;2.80;;;;;;;18.18;100.00;101372.13;5028186;28;20026;-72
2022/06/26 06:23:59;;;;;;;4.28;3.03;;;;;;;18.23;100.00;101373.22;5030952;28;20113;-72
2022/06/26 06:26:25;;;;;;;4.13;2.92;;;;;;;18.28;100.00;101375.34;5026860;28;20462;-71
2022/06/26 06:28:51;;;;;;;6.25;2.95;;;;;;;18.25;100.00;101373.06;5031197;28;20387;-71
2022/06/26 06:31:16;;;;;;;4.72;2.90;;;;;;;18.40;100.00;101371.16;5029344;28;20033;-71
2022/06/26 06:33:41;;;;;;;5.10;3.97;;;;;;;18.34;100.00;101357.72;5033240;28;20052;-71
2022/06/26 06:36:07;;;;;;;4.20;3.40;;;;;;;18.77;100.00;101384.47;5028561;28;20036;-71
2022/06/26 06:38:32;;;;;;;11.10;4.70;;;;;;;18.86;100.00;101376.19;5033267;28;20388;-72
2022/06/26 06:40:58;;;;;;;4.40;3.60;;;;;;;19.04;100.00;101367.69;5039030;28;20390;-72
2022/06/26 06:43:23;;;;;;;7.72;4.05;;;;;;;19.25;100.00;101379.34;5014643;28;20036;-72
2022/06/26 06:45:49;;;;;;;7.05;3.78;;;;;;;19.53;100.00;101368.66;5036649;28;20033;-72
2022/06/26 06:48:14;;;;;;;6.35;4.13;;;;;;;19.95;99.05;101369.53;5037776;28;20033;-72
2022/06/26 06:50:40;;;;;;;4.80;3.95;;;;;;;20.42;96.35;101367.81;5038416;28;20454;-72
2022/06/26 06:53:05;;;;;;;7.55;4.38;;;;;;;20.65;92.91;101353.28;5035516;28;20443;-72
2022/06/26 06:55:31;;;;;;;11.50;4.80;;;;;;;20.98;91.15;101379.31;5029915;28;20111;-72
2022/06/26 06:57:57;;;;;;;6.65;4.53;;;;;;;20.31;91.16;101373.78;5036506;28;20033;-72
2022/06/26 07:00:22;;;;;;;8.77;4.72;;;;;;;20.34;92.73;101400.22;5016124;28;23055;-72
2022/06/26 07:02:48;;;;;;;5.05;3.67;;;;;;;20.69;93.58;101392.91;5034992;28;20037;-72
2022/06/26 07:05:13;;;;;;;7.13;4.45;;;;;;;20.87;89.87;101404.88;5030550;28;20043;-72
2022/06/26 07:07:39;;;;;;;6.82;3.88;;;;;;;20.87;89.24;101418.31;5029686;28;20483;-72
2022/06/26 07:10:05;;;;;;;6.25;4.43;;;;;;;20.87;90.03;101415.63;5040166;28;20025;-72
2022/06/26 07:12:30;;;;;;;4.90;3.70;;;;;;;20.83;90.22;101409.81;5035273;28;20033;-72
2022/06/26 07:14:56;;;;;;;6.68;4.55;;;;;;;20.30;90.73;101420.38;5033435;28;20030;-72
2022/06/26 07:17:22;;;;;;;6.40;4.22;;;;;;;20.34;91.36;101416.28;5031057;28;20021;-72
2022/06/26 07:19:48;;;;;;;6.82;4.45;;;;;;;20.28;91.40;101420.59;5019178;28;20033;-72
2022/06/26 07:22:13;;;;;;;6.18;4.47;;;;;;;20.06;91.93;101401.13;5030116;28;20035;-72
2022/06/26 07:24:39;;;;;;;6.70;4.13;;;;;;;20.24;93.06;101413.16;5014699;28;20037;-72
2022/06/26 07:27:05;;;;;;;7.35;5.25;;;;;;;20.61;92.21;101427.13;5034424;28;20412;-72
2022/06/26 07:29:30;;;;;;;7.05;5.15;;;;;;;20.57;89.83;101426.69;5034150;28;20021;-71
2022/06/26 07:31:56;;;;;;;6.18;4.50;;;;;;;20.57;90.75;101440.09;5032965;28;20033;-71
2022/06/26 07:34:23;;;;;;;10.20;4.88;;;;;;;20.41;90.35;101427.03;5031774;28;20121;-72
2022/06/26 07:36:50;;;;;;;7.40;4.93;;;;;;;20.36;91.52;101430.31;5034281;28;20031;-72
2022/06/26 07:39:18;;;;;;;8.68;5.18;;;;;;;19.85;92.49;101385.16;5033766;28;20025;-72
2022/06/26 07:41:44;;;;;;;5.97;4.75;;;;;;;19.69;93.12;101435.31;5040632;28;20060;-72
2022/06/26 07:44:10;;;;;;;8.68;4.68;;;;;;;19.89;93.66;101439.97;5036350;28;20358;-72
2022/06/26 07:46:37;;;;;;;6.82;5.00;;;;;;;19.82;95.04;101431.09;5034137;28;20094;-70
2022/06/26 07:49:04;;;;;;;6.55;4.88;;;;;;;19.85;94.84;101431.50;5036600;28;20409;-71
2022/06/26 07:51:30;;;;;;;8.38;4.40;;;;;;;19.88;95.00;101433.81;5034933;28;20021;-72
2022/06/26 07:53:55;;;;;;;11.60;5.75;;;;;;;19.94;94.41;101446.38;5035242;28;20029;-71
2022/06/26 07:56:21;;;;;;;7.35;4.78;;;;;;;19.88;94.58;101449.03;5034677;28;20402;-71
2022/06/26 07:58:46;;;;;;;7.38;5.40;;;;;;;20.04;94.04;101464.78;5037765;28;20022;-71
2022/06/26 08:01:12;;;;;;;8.13;5.72;;;;;;;19.83;94.58;101472.91;5037108;28;20025;-71
2022/06/26 08:03:38;;;;;;;9.27;6.22;;;;;;;19.76;96.00;101462.16;5033675;28;20025;-71
2022/06/26 08:06:04;;;;;;;8.68;6.05;;;;;;;19.73;95.32;101466.03;5035480;28;20041;-71
2022/06/26 08:08:29;;;;;;;8.85;6.85;;;;;;;19.49;94.61;101469.13;5036308;28;20021;-71
2022/06/26 08:10:55;;;;;;;9.13;6.05;;;;;;;19.67;94.80;101479.34;5039944;28;20037;-71
2022/06/26 08:13:20;;;;;;;9.35;6.60;;;;;;;19.85;93.61;101474.34;5032950;28;20029;-72
2022/06/26 08:15:46;;;;;;;9.18;5.15;;;;;;;20.06;92.89;101475.31;5034811;28;20033;-72
2022/06/26 08:18:11;;;;;;;6.82;5.80;;;;;;;20.39;91.12;101482.69;5039062;28;20029;-71
2022/06/26 08:20:37;;;;;;;11.05;6.80;;;;;;;20.69;89.05;101489.44;5036100;28;20037;-71
2022/06/26 08:23:02;;;;;;;9.95;6.05;;;;;;;20.53;89.35;101482.56;5038435;28;20074;-72
2022/06/26 08:25:27;;;;;;;7.25;5.35;;;;;;;20.89;88.61;101484.13;5035687;28;20041;-72
2022/06/26 08:27:53;;;;;;;6.97;4.90;;;;;;;21.07;87.32;101490.78;5038490;28;20037;-72
2022/06/26 08:30:19;;;;;;;10.63;6.30;;;;;;;21.12;87.25;101499.03;5036197;28;20033;-72
2022/06/26 08:32:46;;;;;;;8.82;5.28;;;;;;;21.16;87.38;101497.59;5040349;28;20032;-72
2022/06/26 08:35:13;;;;;;;7.38;5.65;;;;;;;21.42;86.18;101506.75;5040815;28;20033;-72
2022/06/26 08:37:38;;;;;;;8.63;4.40;;;;;;;21.63;83.98;101517.28;5039317;28;20470;-72
2022/06/26 08:40:05;;;;;;;3.65;2.45;;;;;;;22.04;81.33;101508.16;5027699;28;20040;-72
2022/06/26 08:42:31;;;;;;;6.00;2.55;;;;;;;22.80;78.55;101509.38;5015953;28;20040;-72
2022/06/26 08:44:58;;;;;;;6.13;3.22;;;;;;;23.83;76.65;101516.31;5034554;28;20458;-72
2022/06/26 08:47:25;;;;;;;4.18;2.55;;;;;;;25.42;71.67;101512.69;5033295;28;20041;-72
2022/06/26 08:49:55;;;;;;;6.38;3.33;;;;;;;26.02;67.42;101523.31;5031334;28;20483;-72
2022/06/26 08:52:21;;;;;;;4.33;3.00;;;;;;;26.87;68.12;101526.38;5037677;28;20390;-72
2022/06/26 08:54:48;;;;;;;5.47;2.60;;;;;;;27.61;62.26;101525.50;5032563;28;20397;-72
2022/06/26 08:57:17;;;;;;;3.97;2.50;;;;;;;28.61;62.32;101541.84;5032130;28;20052;-72
2022/06/26 08:59:43;;;;;;;4.25;2.63;;;;;;;28.90;60.23;101542.44;5035197;28;20076;-72
2022/06/26 09:02:08;;;;;;;3.75;2.10;;;;;;;30.23;59.23;101534.50;5035888;28;20068;-72
2022/06/26 09:04:36;;;;;;;2.72;1.90;;;;;;;30.88;56.63;101543.19;5032646;28;20131;-72
2022/06/26 09:07:02;;;;;;;2.70;2.17;;;;;;;30.82;54.71;101558.69;5031197;28;20037;-73
2022/06/26 09:09:28;;;;;;;4.75;3.00;;;;;;;29.88;54.98;101544.13;5034649;28;20025;-72
2022/06/26 09:12:01;;;;;;;4.82;3.30;;;;;;;28.99;55.07;101557.19;5035991;28;20032;-72
2022/06/26 09:14:29;;;;;;;4.00;2.75;;;;;;;28.02;59.70;101558.69;5030503;28;20099;-73
2022/06/26 09:16:56;;;;;;;3.78;3.10;;;;;;;28.14;57.37;101554.00;5025797;28;20079;-73
2022/06/26 09:19:29;;;;;;;5.07;2.90;;;;;;;27.81;57.65;101550.25;5027392;28;20427;-73
2022/06/26 09:22:15;;;;;;;5.07;2.35;;;;;;;26.88;59.35;101549.72;5029009;28;20040;-72
2022/06/26 09:24:53;;;;;;;2.80;2.53;;;;;;;24.61;60.88;101537.28;5030184;28;20091;-72
2022/06/26 09:27:21;;;;;;;4.80;2.63;;;;;;;25.73;60.01;101557.47;5026858;28;20479;-72
2022/06/26 09:29:56;;;;;;;3.42;2.55;;;;;;;25.45;60.34;101560.84;5009194;28;20859;-72
2022/06/26 09:32:23;;;;;;;2.67;1.95;;;;;;;26.02;63.95;101569.31;5012432;28;20034;-72
2022/06/26 09:34:51;;;;;;;3.75;2.60;;;;;;;26.23;62.24;101567.03;5028894;28;20057;-72
2022/06/26 09:37:19;;;;;;;2.22;1.77;;;;;;;27.83;60.76;101580.66;5030542;28;20064;-72
2022/06/26 09:39:44;;;;;;;3.22;1.83;;;;;;;27.95;58.02;101571.63;5040095;28;20055;-72
2022/06/26 09:42:19;;;;;;;3.20;1.85;;;;;;;27.47;58.23;101577.34;5010801;28;20435;-72
2022/06/26 09:44:52;;;;;;;2.58;1.60;;;;;;;27.60;59.43;101575.38;5027755;28;20588;-72
2022/06/26 09:47:26;;;;;;;2.08;1.50;;;;;;;27.85;60.72;101578.53;5029740;28;20047;-72
2022/06/26 09:49:54;;;;;;;3.03;1.70;;;;;;;28.45;55.85;101570.69;5032268;28;20522;-72
2022/06/26 09:52:22;;;;;;;2.42;1.50;;;;;;;28.71;56.20;101579.97;5031249;28;20033;-72
2022/06/26 09:54:48;;;;;;;1.80;1.45;;;;;;;30.22;50.92;101566.31;5030291;28;20036;-72
2022/06/26 09:57:14;;;;;;;1.58;0.95;;;;;;;31.03;51.00;101562.31;5030566;28;20472;-72
2022/06/26 09:59:40;;;;;;;2.05;1.17;;;;;;;31.45;48.01;101558.53;5031579;28;20033;-73
2022/06/26 10:07:41;;;;;;;2.83;1.58;;;;;;;32.31;45.20;101550.47;5031124;28;20321;-72
2022/06/26 10:10:07;;;;;;;3.85;1.80;;;;;;;31.52;49.45;101567.25;5011354;28;20056;-73
2022/06/26 10:12:34;;;;;;;2.05;1.25;;;;;;;32.38;48.31;101565.47;5030513;28;20033;-73
2022/06/26 10:15:00;;;;;;;3.30;1.98;;;;;;;30.41;51.00;101572.19;5029528;28;20029;-72
2022/06/26 10:17:58;;;;;;;1.20;1.00;;;;;;;30.86;50.81;101576.19;5026328;28;20486;-73
2022/06/26 10:20:24;;;;;;;1.20;0.63;;;;;;;30.90;49.35;101577.28;5026514;28;20027;-73
2022/06/26 10:22:50;;;;;;;4.05;0.80;;;;;;;30.81;49.27;101567.13;5028358;28;20024;-72
2022/06/26 10:25:29;;;;;;;2.47;1.00;;;;;;;30.83;48.17;101584.03;5030644;28;20025;-72
2022/06/26 10:27:55;;;;;;;1.63;0.80;;;;;;;30.94;48.40;101583.00;5029969;28;20074;-72
2022/06/26 10:30:23;;;;;;;2.67;1.00;;;;;;;30.42;48.14;101584.72;5031271;28;20067;-72
2022/06/26 10:33:09;;;;;;;1.63;1.13;;;;;;;29.67;50.76;101575.75;5027430;28;20025;-72
2022/06/26 10:35:40;;;;;;;1.33;0.80;;;;;;;30.40;50.80;101572.44;5028309;28;20489;-72
2022/06/26 10:38:21;;;;;;;1.50;1.00;;;;;;;29.89;47.68;101570.22;5025513;28;20029;-72
2022/06/26 10:43:49;;;;;;;1.50;0.98;;;;;;;28.29;50.97;101556.91;5026656;28;20456;-72
2022/06/26 10:46:14;;;;;;;1.40;1.00;;;;;;;29.20;50.17;101562.84;5029933;28;20045;-72
2022/06/26 10:48:54;;;;;;;2.47;1.33;;;;;;;29.11;49.58;101570.66;5027689;28;20041;-72
2022/06/26 10:51:29;;;;;;;1.98;1.20;;;;;;;28.43;50.23;101578.25;5034564;28;20432;-72
2022/06/26 10:53:55;;;;;;;2.03;0.75;;;;;;;27.02;55.92;101570.03;5034620;28;20060;-72
2022/06/26 10:56:21;;;;;;;3.47;0.90;;;;;;;27.09;53.11;101565.28;5014429;28;20801;-72
2022/06/26 10:58:48;;;;;;;1.38;0.80;;;;;;;26.49;53.44;101579.22;5033495;28;20087;-72
2022/06/26 11:01:16;;;;;;;1.63;1.52;;;;;;;25.25;55.22;101558.47;5036440;28;20040;-72
2022/06/26 11:03:43;;;;;;;2.83;1.38;;;;;;;24.66;57.01;101568.97;5033278;28;20037;-71
2022/06/26 11:06:15;;;;;;;1.55;0.82;;;;;;;25.28;60.11;101552.59;5034443;28;20064;-72
2022/06/26 11:08:51;;;;;;;1.30;0.90;;;;;;;25.83;54.54;101541.50;5031553;28;20025;-69
2022/06/26 11:11:20;;;;;;;3.55;1.40;;;;;;;25.20;55.65;101555.63;5030377;28;20033;-70
2022/06/26 11:14:07;;;;;;;1.10;0.75;;;;;;;25.70;59.32;101567.97;5025382;28;20029;-70
2022/06/26 11:16:38;;;;;;;2.85;1.00;;;;;;;25.72;55.74;101561.25;5032842;28;20025;-71
2022/06/26 11:19:06;;;;;;;1.65;1.30;;;;;;;25.44;55.85;101559.22;5040497;28;20037;-71
2022/06/26 11:21:32;;;;;;;2.70;1.15;;;;;;;25.31;54.80;101565.66;5026909;28;20033;-71
2022/06/26 11:23:59;;;;;;;2.10;1.10;;;;;;;25.39;58.26;101557.22;5030218;28;20033;-71
2022/06/26 11:26:24;;;;;;;1.90;1.10;;;;;;;25.58;55.38;101570.63;5027938;28;20029;-71
2022/06/26 11:28:58;;;;;;;1.50;1.20;;;;;;;24.45;57.95;101567.53;5032701;28;20529;-71